sensor_id;sensor_type;location;lat;lon;timestamp;P1;durP1;ratioP1;P2;durP2;ratioP2
60308;SDS011;50313;52.894;6.492;2023-05-07T00:00:40;5.78;;;3.55;;
60308;SDS011;50313;52.894;6.492;2023-05-07T00:03:06;8.10;;;3.50;;
60308;SDS011;50313;52.894;6.492;2023-05-07T00:05:32;4.65;;;3.65;;
60308;SDS011;50313;52.894;6.492;2023-05-07T00:07:57;8.10;;;4.25;;
60308;SDS011;50313;52.894;6.492;2023-05-07T00:10:23;6.25;;;3.30;;
60308;SDS011;50313;52.894;6.492;2023-05-07T00:12:50;5.28;;;3.20;;
60308;SDS011;50313;52.894;6.492;2023-05-07T00:15:16;10.73;;;3.75;;
60308;SDS011;50313;52.894;6.492;2023-05-07T00:17:42;8.27;;;4.35;;
60308;SDS011;50313;52.894;6.492;2023-05-07T00:20:07;5.88;;;3.55;;
60308;SDS011;50313;52.894;6.492;2023-05-07T00:22:34;6.40;;;3.75;;
60308;SDS011;50313;52.894;6.492;2023-05-07T00:24:59;5.68;;;3.78;;
60308;SDS011;50313;52.894;6.492;2023-05-07T00:27:25;5.63;;;3.65;;
60308;SDS011;50313;52.894;6.492;2023-05-07T00:29:51;8.10;;;3.65;;
60308;SDS011;50313;52.894;6.492;2023-05-07T00:32:16;6.07;;;3.92;;
60308;SDS011;50313;52.894;6.492;2023-05-07T00:34:42;7.03;;;4.60;;
60308;SDS011;50313;52.894;6.492;2023-05-07T00:37:08;7.60;;;3.83;;
60308;SDS011;50313;52.894;6.492;2023-05-07T00:39:34;8.52;;;4.13;;
60308;SDS011;50313;52.894;6.492;2023-05-07T00:42:01;14.98;;;3.63;;
60308;SDS011;50313;52.894;6.492;2023-05-07T00:44:28;9.90;;;4.78;;
60308;SDS011;50313;52.894;6.492;2023-05-07T00:46:54;13.25;;;4.30;;
60308;SDS011;50313;52.894;6.492;2023-05-07T00:49:22;5.38;;;3.58;;
60308;SDS011;50313;52.894;6.492;2023-05-07T00:51:59;5.50;;;3.88;;
60308;SDS011;50313;52.894;6.492;2023-05-07T00:54:25;7.97;;;3.70;;
60308;SDS011;50313;52.894;6.492;2023-05-07T00:56:51;8.35;;;4.63;;
60308;SDS011;50313;52.894;6.492;2023-05-07T00:59:17;7.38;;;4.25;;
60308;SDS011;50313;52.894;6.492;2023-05-07T01:01:43;11.93;;;4.22;;
60308;SDS011;50313;52.894;6.492;2023-05-07T01:04:09;9.05;;;6.30;;
60308;SDS011;50313;52.894;6.492;2023-05-07T01:06:35;9.45;;;5.38;;
60308;SDS011;50313;52.894;6.492;2023-05-07T01:09:01;8.52;;;5.15;;
60308;SDS011;50313;52.894;6.492;2023-05-07T01:11:29;8.40;;;5.43;;
60308;SDS011;50313;52.894;6.492;2023-05-07T01:13:55;9.63;;;5.18;;
60308;SDS011;50313;52.894;6.492;2023-05-07T01:16:24;8.05;;;4.75;;
60308;SDS011;50313;52.894;6.492;2023-05-07T01:18:50;10.40;;;5.10;;
60308;SDS011;50313;52.894;6.492;2023-05-07T01:21:16;12.57;;;6.53;;
60308;SDS011;50313;52.894;6.492;2023-05-07T01:23:43;9.10;;;5.50;;
60308;SDS011;50313;52.894;6.492;2023-05-07T01:26:11;10.90;;;6.35;;
60308;SDS011;50313;52.894;6.492;2023-05-07T01:28:36;11.10;;;6.50;;
60308;SDS011;50313;52.894;6.492;2023-05-07T01:31:02;13.15;;;6.20;;
60308;SDS011;50313;52.894;6.492;2023-05-07T01:33:32;13.63;;;7.90;;
60308;SDS011;50313;52.894;6.492;2023-05-07T01:36:00;13.57;;;6.18;;
60308;SDS011;50313;52.894;6.492;2023-05-07T01:38:28;13.57;;;7.43;;
60308;SDS011;50313;52.894;6.492;2023-05-07T01:40:55;11.57;;;5.50;;
60308;SDS011;50313;52.894;6.492;2023-05-07T01:43:21;10.30;;;6.70;;
60308;SDS011;50313;52.894;6.492;2023-05-07T01:45:49;12.10;;;6.93;;
60308;SDS011;50313;52.894;6.492;2023-05-07T01:48:15;12.82;;;6.00;;
60308;SDS011;50313;52.894;6.492;2023-05-07T01:50:44;8.68;;;5.15;;
60308;SDS011;50313;52.894;6.492;2023-05-07T01:53:10;11.18;;;6.30;;
60308;SDS011;50313;52.894;6.492;2023-05-07T01:55:36;11.82;;;6.28;;
60308;SDS011;50313;52.894;6.492;2023-05-07T01:58:05;11.70;;;5.95;;
60308;SDS011;50313;52.894;6.492;2023-05-07T02:00:31;10.77;;;5.05;;
60308;SDS011;50313;52.894;6.492;2023-05-07T02:02:57;10.43;;;5.93;;
60308;SDS011;50313;52.894;6.492;2023-05-07T02:05:23;12.63;;;6.95;;
60308;SDS011;50313;52.894;6.492;2023-05-07T02:07:49;9.52;;;5.68;;
60308;SDS011;50313;52.894;6.492;2023-05-07T02:10:14;12.90;;;6.57;;
60308;SDS011;50313;52.894;6.492;2023-05-07T02:12:40;12.40;;;5.35;;
60308;SDS011;50313;52.894;6.492;2023-05-07T02:15:07;13.15;;;4.65;;
60308;SDS011;50313;52.894;6.492;2023-05-07T02:17:33;9.13;;;5.47;;
60308;SDS011;50313;52.894;6.492;2023-05-07T02:20:00;9.40;;;5.63;;
60308;SDS011;50313;52.894;6.492;2023-05-07T02:22:26;10.68;;;5.68;;
60308;SDS011;50313;52.894;6.492;2023-05-07T02:24:51;20.60;;;6.90;;
60308;SDS011;50313;52.894;6.492;2023-05-07T02:27:18;10.25;;;6.75;;
60308;SDS011;50313;52.894;6.492;2023-05-07T02:29:43;9.77;;;5.60;;
60308;SDS011;50313;52.894;6.492;2023-05-07T02:32:09;11.30;;;6.13;;
60308;SDS011;50313;52.894;6.492;2023-05-07T02:34:35;11.43;;;6.53;;
60308;SDS011;50313;52.894;6.492;2023-05-07T02:37:00;9.68;;;4.97;;
60308;SDS011;50313;52.894;6.492;2023-05-07T02:39:26;19.58;;;6.93;;
60308;SDS011;50313;52.894;6.492;2023-05-07T02:41:52;10.63;;;6.60;;
60308;SDS011;50313;52.894;6.492;2023-05-07T02:44:17;9.38;;;5.82;;
60308;SDS011;50313;52.894;6.492;2023-05-07T02:46:43;11.63;;;6.28;;
60308;SDS011;50313;52.894;6.492;2023-05-07T02:49:09;12.60;;;8.13;;
60308;SDS011;50313;52.894;6.492;2023-05-07T02:51:35;18.80;;;6.93;;
60308;SDS011;50313;52.894;6.492;2023-05-07T02:54:01;11.70;;;6.80;;
60308;SDS011;50313;52.894;6.492;2023-05-07T02:56:26;15.95;;;6.40;;
60308;SDS011;50313;52.894;6.492;2023-05-07T02:58:52;12.23;;;7.07;;
60308;SDS011;50313;52.894;6.492;2023-05-07T03:01:18;12.55;;;8.07;;
60308;SDS011;50313;52.894;6.492;2023-05-07T03:03:44;14.43;;;7.63;;
60308;SDS011;50313;52.894;6.492;2023-05-07T03:06:09;10.95;;;5.88;;
60308;SDS011;50313;52.894;6.492;2023-05-07T03:08:35;16.33;;;7.32;;
60308;SDS011;50313;52.894;6.492;2023-05-07T03:11:02;14.07;;;8.40;;
60308;SDS011;50313;52.894;6.492;2023-05-07T03:13:27;12.70;;;6.75;;
60308;SDS011;50313;52.894;6.492;2023-05-07T03:15:53;14.15;;;5.22;;
60308;SDS011;50313;52.894;6.492;2023-05-07T03:18:19;11.90;;;6.55;;
60308;SDS011;50313;52.894;6.492;2023-05-07T03:20:45;17.05;;;8.13;;
60308;SDS011;50313;52.894;6.492;2023-05-07T03:23:11;13.85;;;6.75;;
60308;SDS011;50313;52.894;6.492;2023-05-07T03:25:36;16.20;;;8.05;;
60308;SDS011;50313;52.894;6.492;2023-05-07T03:28:02;13.75;;;7.65;;
60308;SDS011;50313;52.894;6.492;2023-05-07T03:30:28;13.32;;;8.15;;
60308;SDS011;50313;52.894;6.492;2023-05-07T03:32:54;8.30;;;5.95;;
60308;SDS011;50313;52.894;6.492;2023-05-07T03:35:19;24.10;;;8.52;;
60308;SDS011;50313;52.894;6.492;2023-05-07T03:37:45;21.70;;;8.43;;
60308;SDS011;50313;52.894;6.492;2023-05-07T03:40:11;16.25;;;7.07;;
60308;SDS011;50313;52.894;6.492;2023-05-07T03:42:37;13.98;;;7.35;;
60308;SDS011;50313;52.894;6.492;2023-05-07T03:45:03;15.88;;;8.75;;
60308;SDS011;50313;52.894;6.492;2023-05-07T03:47:29;15.13;;;8.30;;
60308;SDS011;50313;52.894;6.492;2023-05-07T03:49:55;26.15;;;9.75;;
60308;SDS011;50313;52.894;6.492;2023-05-07T03:52:21;16.60;;;8.18;;
60308;SDS011;50313;52.894;6.492;2023-05-07T03:54:50;15.63;;;7.72;;
60308;SDS011;50313;52.894;6.492;2023-05-07T03:57:17;15.82;;;7.85;;
60308;SDS011;50313;52.894;6.492;2023-05-07T03:59:43;17.65;;;9.82;;
60308;SDS011;50313;52.894;6.492;2023-05-07T04:02:09;18.15;;;9.82;;
60308;SDS011;50313;52.894;6.492;2023-05-07T04:04:35;18.63;;;8.57;;
60308;SDS011;50313;52.894;6.492;2023-05-07T04:07:00;14.60;;;9.48;;
60308;SDS011;50313;52.894;6.492;2023-05-07T04:09:26;15.38;;;9.25;;
60308;SDS011;50313;52.894;6.492;2023-05-07T04:11:52;23.60;;;9.70;;
60308;SDS011;50313;52.894;6.492;2023-05-07T04:14:18;14.82;;;7.88;;
60308;SDS011;50313;52.894;6.492;2023-05-07T04:16:43;21.00;;;9.02;;
60308;SDS011;50313;52.894;6.492;2023-05-07T04:19:09;18.30;;;10.07;;
60308;SDS011;50313;52.894;6.492;2023-05-07T04:21:35;15.55;;;8.10;;
60308;SDS011;50313;52.894;6.492;2023-05-07T04:24:02;15.75;;;9.95;;
60308;SDS011;50313;52.894;6.492;2023-05-07T04:26:28;21.35;;;11.15;;
60308;SDS011;50313;52.894;6.492;2023-05-07T04:28:54;28.25;;;9.80;;
60308;SDS011;50313;52.894;6.492;2023-05-07T04:31:20;17.85;;;8.25;;
60308;SDS011;50313;52.894;6.492;2023-05-07T04:33:46;15.75;;;9.02;;
60308;SDS011;50313;52.894;6.492;2023-05-07T04:36:11;11.77;;;7.38;;
60308;SDS011;50313;52.894;6.492;2023-05-07T04:38:37;15.93;;;8.82;;
60308;SDS011;50313;52.894;6.492;2023-05-07T04:41:04;16.30;;;7.80;;
60308;SDS011;50313;52.894;6.492;2023-05-07T04:43:31;14.45;;;8.30;;
60308;SDS011;50313;52.894;6.492;2023-05-07T04:45:57;21.70;;;8.77;;
60308;SDS011;50313;52.894;6.492;2023-05-07T04:48:22;17.85;;;8.38;;
60308;SDS011;50313;52.894;6.492;2023-05-07T04:50:48;13.90;;;8.52;;
60308;SDS011;50313;52.894;6.492;2023-05-07T04:53:15;18.67;;;8.75;;
60308;SDS011;50313;52.894;6.492;2023-05-07T04:55:40;22.35;;;9.43;;
60308;SDS011;50313;52.894;6.492;2023-05-07T04:58:07;9.52;;;7.45;;
60308;SDS011;50313;52.894;6.492;2023-05-07T05:00:33;14.15;;;7.47;;
60308;SDS011;50313;52.894;6.492;2023-05-07T05:02:59;12.98;;;7.03;;
60308;SDS011;50313;52.894;6.492;2023-05-07T05:05:25;13.40;;;7.07;;
60308;SDS011;50313;52.894;6.492;2023-05-07T05:07:50;14.20;;;7.78;;
60308;SDS011;50313;52.894;6.492;2023-05-07T05:10:16;21.77;;;9.02;;
60308;SDS011;50313;52.894;6.492;2023-05-07T05:12:43;19.20;;;9.05;;
60308;SDS011;50313;52.894;6.492;2023-05-07T05:15:10;18.92;;;9.10;;
60308;SDS011;50313;52.894;6.492;2023-05-07T05:17:37;12.98;;;9.05;;
60308;SDS011;50313;52.894;6.492;2023-05-07T05:20:03;15.85;;;7.93;;
60308;SDS011;50313;52.894;6.492;2023-05-07T05:22:30;17.17;;;7.07;;
60308;SDS011;50313;52.894;6.492;2023-05-07T05:24:57;16.65;;;7.40;;
60308;SDS011;50313;52.894;6.492;2023-05-07T05:27:22;14.93;;;6.88;;
60308;SDS011;50313;52.894;6.492;2023-05-07T05:29:49;16.88;;;8.70;;
60308;SDS011;50313;52.894;6.492;2023-05-07T05:32:14;15.13;;;6.72;;
60308;SDS011;50313;52.894;6.492;2023-05-07T05:34:40;11.27;;;7.10;;
60308;SDS011;50313;52.894;6.492;2023-05-07T05:37:06;16.95;;;7.53;;
60308;SDS011;50313;52.894;6.492;2023-05-07T05:39:32;13.30;;;6.22;;
60308;SDS011;50313;52.894;6.492;2023-05-07T05:41:57;10.23;;;7.13;;
60308;SDS011;50313;52.894;6.492;2023-05-07T05:44:23;9.65;;;6.15;;
60308;SDS011;50313;52.894;6.492;2023-05-07T05:46:50;12.48;;;6.88;;
60308;SDS011;50313;52.894;6.492;2023-05-07T05:49:16;11.00;;;6.80;;
60308;SDS011;50313;52.894;6.492;2023-05-07T05:51:42;20.58;;;8.20;;
60308;SDS011;50313;52.894;6.492;2023-05-07T05:54:08;18.08;;;8.82;;
60308;SDS011;50313;52.894;6.492;2023-05-07T05:56:34;14.40;;;7.93;;
60308;SDS011;50313;52.894;6.492;2023-05-07T05:59:02;13.80;;;6.18;;
60308;SDS011;50313;52.894;6.492;2023-05-07T06:01:28;15.82;;;9.63;;
60308;SDS011;50313;52.894;6.492;2023-05-07T06:03:53;13.43;;;6.70;;
60308;SDS011;50313;52.894;6.492;2023-05-07T06:06:19;15.82;;;7.88;;
60308;SDS011;50313;52.894;6.492;2023-05-07T06:08:45;10.45;;;6.72;;
60308;SDS011;50313;52.894;6.492;2023-05-07T06:11:11;11.15;;;8.13;;
60308;SDS011;50313;52.894;6.492;2023-05-07T06:13:37;10.45;;;6.03;;
60308;SDS011;50313;52.894;6.492;2023-05-07T06:16:02;13.43;;;6.65;;
60308;SDS011;50313;52.894;6.492;2023-05-07T06:18:28;15.70;;;8.43;;
60308;SDS011;50313;52.894;6.492;2023-05-07T06:20:54;15.93;;;7.95;;
60308;SDS011;50313;52.894;6.492;2023-05-07T06:23:20;16.42;;;8.10;;
60308;SDS011;50313;52.894;6.492;2023-05-07T06:25:49;13.57;;;7.07;;
60308;SDS011;50313;52.894;6.492;2023-05-07T06:28:16;12.05;;;7.43;;
60308;SDS011;50313;52.894;6.492;2023-05-07T06:30:42;12.95;;;7.60;;
60308;SDS011;50313;52.894;6.492;2023-05-07T06:33:08;17.13;;;7.82;;
60308;SDS011;50313;52.894;6.492;2023-05-07T06:35:33;16.70;;;7.53;;
60308;SDS011;50313;52.894;6.492;2023-05-07T06:37:59;15.70;;;8.65;;
60308;SDS011;50313;52.894;6.492;2023-05-07T06:40:25;18.80;;;9.00;;
60308;SDS011;50313;52.894;6.492;2023-05-07T06:42:51;14.32;;;6.28;;
60308;SDS011;50313;52.894;6.492;2023-05-07T06:45:17;14.95;;;7.75;;
60308;SDS011;50313;52.894;6.492;2023-05-07T06:47:44;15.07;;;8.90;;
60308;SDS011;50313;52.894;6.492;2023-05-07T06:50:10;18.48;;;9.45;;
60308;SDS011;50313;52.894;6.492;2023-05-07T06:52:36;11.98;;;6.65;;
60308;SDS011;50313;52.894;6.492;2023-05-07T06:55:01;14.48;;;8.18;;
60308;SDS011;50313;52.894;6.492;2023-05-07T06:57:27;16.55;;;8.68;;
60308;SDS011;50313;52.894;6.492;2023-05-07T06:59:53;17.08;;;8.77;;
60308;SDS011;50313;52.894;6.492;2023-05-07T07:02:19;15.25;;;9.23;;
60308;SDS011;50313;52.894;6.492;2023-05-07T07:04:44;13.55;;;7.20;;
60308;SDS011;50313;52.894;6.492;2023-05-07T07:07:10;18.77;;;7.93;;
60308;SDS011;50313;52.894;6.492;2023-05-07T07:09:36;17.05;;;8.02;;
60308;SDS011;50313;52.894;6.492;2023-05-07T07:12:02;18.95;;;8.48;;
60308;SDS011;50313;52.894;6.492;2023-05-07T07:14:28;15.13;;;8.32;;
60308;SDS011;50313;52.894;6.492;2023-05-07T07:16:56;17.20;;;8.63;;
60308;SDS011;50313;52.894;6.492;2023-05-07T07:19:21;15.65;;;8.60;;
60308;SDS011;50313;52.894;6.492;2023-05-07T07:21:47;17.27;;;8.15;;
60308;SDS011;50313;52.894;6.492;2023-05-07T07:24:13;15.90;;;8.48;;
60308;SDS011;50313;52.894;6.492;2023-05-07T07:26:44;17.20;;;8.85;;
60308;SDS011;50313;52.894;6.492;2023-05-07T07:29:10;18.40;;;7.63;;
60308;SDS011;50313;52.894;6.492;2023-05-07T07:31:35;18.92;;;8.77;;
60308;SDS011;50313;52.894;6.492;2023-05-07T07:34:03;21.35;;;9.27;;
60308;SDS011;50313;52.894;6.492;2023-05-07T07:36:29;20.90;;;9.43;;
60308;SDS011;50313;52.894;6.492;2023-05-07T07:38:58;15.10;;;7.82;;
60308;SDS011;50313;52.894;6.492;2023-05-07T07:41:23;17.48;;;8.55;;
60308;SDS011;50313;52.894;6.492;2023-05-07T07:43:49;20.90;;;8.82;;
60308;SDS011;50313;52.894;6.492;2023-05-07T07:46:15;20.95;;;9.80;;
60308;SDS011;50313;52.894;6.492;2023-05-07T07:48:40;18.80;;;8.73;;
60308;SDS011;50313;52.894;6.492;2023-05-07T07:51:06;20.40;;;9.63;;
60308;SDS011;50313;52.894;6.492;2023-05-07T07:53:32;18.13;;;8.90;;
60308;SDS011;50313;52.894;6.492;2023-05-07T07:56:00;24.98;;;9.60;;
60308;SDS011;50313;52.894;6.492;2023-05-07T07:58:26;20.20;;;10.75;;
60308;SDS011;50313;52.894;6.492;2023-05-07T08:00:52;17.88;;;8.75;;
60308;SDS011;50313;52.894;6.492;2023-05-07T08:03:17;16.92;;;9.18;;
60308;SDS011;50313;52.894;6.492;2023-05-07T08:05:44;29.00;;;10.55;;
60308;SDS011;50313;52.894;6.492;2023-05-07T08:08:10;14.45;;;8.27;;
60308;SDS011;50313;52.894;6.492;2023-05-07T08:10:36;18.80;;;9.88;;
60308;SDS011;50313;52.894;6.492;2023-05-07T08:13:03;20.38;;;8.93;;
60308;SDS011;50313;52.894;6.492;2023-05-07T08:15:29;19.35;;;9.40;;
60308;SDS011;50313;52.894;6.492;2023-05-07T08:17:55;20.02;;;8.88;;
60308;SDS011;50313;52.894;6.492;2023-05-07T08:20:22;19.75;;;9.98;;
60308;SDS011;50313;52.894;6.492;2023-05-07T08:22:48;15.75;;;8.18;;
60308;SDS011;50313;52.894;6.492;2023-05-07T08:25:17;19.27;;;8.95;;
60308;SDS011;50313;52.894;6.492;2023-05-07T08:27:43;17.60;;;9.70;;
60308;SDS011;50313;52.894;6.492;2023-05-07T08:30:10;17.92;;;9.52;;
60308;SDS011;50313;52.894;6.492;2023-05-07T08:32:36;19.20;;;9.15;;
60308;SDS011;50313;52.894;6.492;2023-05-07T08:35:02;16.75;;;9.32;;
60308;SDS011;50313;52.894;6.492;2023-05-07T08:37:28;17.05;;;8.63;;
60308;SDS011;50313;52.894;6.492;2023-05-07T08:39:54;18.23;;;9.45;;
60308;SDS011;50313;52.894;6.492;2023-05-07T08:42:20;20.17;;;8.63;;
60308;SDS011;50313;52.894;6.492;2023-05-07T08:44:51;23.35;;;9.60;;
60308;SDS011;50313;52.894;6.492;2023-05-07T08:47:18;16.73;;;8.82;;
60308;SDS011;50313;52.894;6.492;2023-05-07T08:49:47;15.20;;;8.48;;
60308;SDS011;50313;52.894;6.492;2023-05-07T08:52:14;25.10;;;10.30;;
60308;SDS011;50313;52.894;6.492;2023-05-07T08:54:40;21.42;;;10.50;;
60308;SDS011;50313;52.894;6.492;2023-05-07T08:57:06;19.92;;;9.95;;
60308;SDS011;50313;52.894;6.492;2023-05-07T08:59:32;19.25;;;9.70;;
60308;SDS011;50313;52.894;6.492;2023-05-07T09:02:01;21.15;;;9.18;;
60308;SDS011;50313;52.894;6.492;2023-05-07T09:04:27;22.08;;;10.73;;
60308;SDS011;50313;52.894;6.492;2023-05-07T09:06:53;20.55;;;10.00;;
60308;SDS011;50313;52.894;6.492;2023-05-07T09:09:19;20.75;;;10.40;;
60308;SDS011;50313;52.894;6.492;2023-05-07T09:11:46;15.50;;;9.27;;
60308;SDS011;50313;52.894;6.492;2023-05-07T09:14:12;21.95;;;9.63;;
60308;SDS011;50313;52.894;6.492;2023-05-07T09:16:38;22.45;;;9.05;;
60308;SDS011;50313;52.894;6.492;2023-05-07T09:19:04;17.85;;;9.27;;
60308;SDS011;50313;52.894;6.492;2023-05-07T09:21:30;21.38;;;9.70;;
60308;SDS011;50313;52.894;6.492;2023-05-07T09:23:56;20.65;;;8.90;;
60308;SDS011;50313;52.894;6.492;2023-05-07T09:26:22;19.60;;;10.65;;
60308;SDS011;50313;52.894;6.492;2023-05-07T09:28:49;20.45;;;10.82;;
60308;SDS011;50313;52.894;6.492;2023-05-07T09:31:15;18.95;;;8.95;;
60308;SDS011;50313;52.894;6.492;2023-05-07T09:33:44;18.00;;;9.55;;
60308;SDS011;50313;52.894;6.492;2023-05-07T09:36:10;18.83;;;10.00;;
60308;SDS011;50313;52.894;6.492;2023-05-07T09:38:36;19.92;;;10.23;;
60308;SDS011;50313;52.894;6.492;2023-05-07T09:41:09;19.77;;;9.70;;
60308;SDS011;50313;52.894;6.492;2023-05-07T09:43:37;22.70;;;10.10;;
60308;SDS011;50313;52.894;6.492;2023-05-07T09:46:08;22.88;;;10.40;;
60308;SDS011;50313;52.894;6.492;2023-05-07T09:48:38;17.52;;;9.20;;
60308;SDS011;50313;52.894;6.492;2023-05-07T09:51:11;16.13;;;9.20;;
60308;SDS011;50313;52.894;6.492;2023-05-07T09:53:53;20.27;;;8.93;;
60308;SDS011;50313;52.894;6.492;2023-05-07T09:56:19;17.17;;;9.65;;
60308;SDS011;50313;52.894;6.492;2023-05-07T09:58:48;17.75;;;9.20;;
60308;SDS011;50313;52.894;6.492;2023-05-07T10:01:19;20.27;;;10.38;;
60308;SDS011;50313;52.894;6.492;2023-05-07T10:03:47;17.05;;;8.80;;
60308;SDS011;50313;52.894;6.492;2023-05-07T10:06:15;18.85;;;8.32;;
60308;SDS011;50313;52.894;6.492;2023-05-07T10:08:44;20.73;;;9.48;;
60308;SDS011;50313;52.894;6.492;2023-05-07T10:11:11;21.52;;;10.13;;
60308;SDS011;50313;52.894;6.492;2023-05-07T10:13:37;17.38;;;9.02;;
60308;SDS011;50313;52.894;6.492;2023-05-07T10:16:44;21.67;;;9.32;;
60308;SDS011;50313;52.894;6.492;2023-05-07T10:19:12;18.85;;;9.02;;
60308;SDS011;50313;52.894;6.492;2023-05-07T10:21:56;19.77;;;8.65;;
60308;SDS011;50313;52.894;6.492;2023-05-07T10:24:32;13.63;;;8.10;;
60308;SDS011;50313;52.894;6.492;2023-05-07T10:27:03;18.35;;;9.98;;
60308;SDS011;50313;52.894;6.492;2023-05-07T10:29:42;17.98;;;9.57;;
60308;SDS011;50313;52.894;6.492;2023-05-07T10:35:06;16.75;;;8.90;;
60308;SDS011;50313;52.894;6.492;2023-05-07T10:37:37;18.05;;;9.13;;
60308;SDS011;50313;52.894;6.492;2023-05-07T10:40:03;14.88;;;8.82;;
60308;SDS011;50313;52.894;6.492;2023-05-07T10:42:29;20.52;;;9.55;;
60308;SDS011;50313;52.894;6.492;2023-05-07T10:44:55;22.58;;;9.18;;
60308;SDS011;50313;52.894;6.492;2023-05-07T10:47:39;19.92;;;9.93;;
60308;SDS011;50313;52.894;6.492;2023-05-07T10:50:33;16.98;;;7.65;;
60308;SDS011;50313;52.894;6.492;2023-05-07T10:58:31;15.57;;;8.05;;
60308;SDS011;50313;52.894;6.492;2023-05-07T11:01:01;12.88;;;7.55;;
60308;SDS011;50313;52.894;6.492;2023-05-07T11:03:28;14.52;;;8.02;;
60308;SDS011;50313;52.894;6.492;2023-05-07T11:06:13;12.93;;;7.65;;
60308;SDS011;50313;52.894;6.492;2023-05-07T11:11:20;19.23;;;8.95;;
60308;SDS011;50313;52.894;6.492;2023-05-07T11:17:22;14.85;;;7.97;;
60308;SDS011;50313;52.894;6.492;2023-05-07T11:25:04;15.07;;;7.85;;
60308;SDS011;50313;52.894;6.492;2023-05-07T11:27:31;15.52;;;7.65;;
60308;SDS011;50313;52.894;6.492;2023-05-07T11:29:57;15.10;;;7.85;;
60308;SDS011;50313;52.894;6.492;2023-05-07T11:32:23;17.05;;;8.55;;
60308;SDS011;50313;52.894;6.492;2023-05-07T11:34:53;18.92;;;7.93;;
60308;SDS011;50313;52.894;6.492;2023-05-07T11:37:20;12.63;;;7.13;;
60308;SDS011;50313;52.894;6.492;2023-05-07T11:39:47;15.70;;;8.27;;
60308;SDS011;50313;52.894;6.492;2023-05-07T11:42:29;13.80;;;7.13;;
60308;SDS011;50313;52.894;6.492;2023-05-07T11:44:56;13.65;;;7.05;;
60308;SDS011;50313;52.894;6.492;2023-05-07T11:47:25;12.82;;;7.45;;
60308;SDS011;50313;52.894;6.492;2023-05-07T11:50:02;17.60;;;8.38;;
60308;SDS011;50313;52.894;6.492;2023-05-07T11:52:32;14.02;;;7.95;;
60308;SDS011;50313;52.894;6.492;2023-05-07T11:54:59;12.50;;;7.63;;
60308;SDS011;50313;52.894;6.492;2023-05-07T11:57:26;15.20;;;8.30;;
60308;SDS011;50313;52.894;6.492;2023-05-07T11:59:56;16.23;;;8.18;;
60308;SDS011;50313;52.894;6.492;2023-05-07T12:02:23;12.15;;;6.82;;
60308;SDS011;50313;52.894;6.492;2023-05-07T12:04:51;13.13;;;7.50;;
60308;SDS011;50313;52.894;6.492;2023-05-07T12:07:17;11.23;;;7.05;;
60308;SDS011;50313;52.894;6.492;2023-05-07T12:09:43;13.50;;;7.72;;
60308;SDS011;50313;52.894;6.492;2023-05-07T12:12:12;14.52;;;7.57;;
60308;SDS011;50313;52.894;6.492;2023-05-07T12:14:43;14.13;;;7.80;;
60308;SDS011;50313;52.894;6.492;2023-05-07T12:17:10;14.82;;;7.78;;
60308;SDS011;50313;52.894;6.492;2023-05-07T12:19:43;12.82;;;7.45;;
60308;SDS011;50313;52.894;6.492;2023-05-07T12:22:10;12.15;;;7.25;;
60308;SDS011;50313;52.894;6.492;2023-05-07T12:24:43;15.63;;;8.05;;
60308;SDS011;50313;52.894;6.492;2023-05-07T12:27:14;13.52;;;7.72;;
60308;SDS011;50313;52.894;6.492;2023-05-07T12:29:43;16.60;;;7.20;;
60308;SDS011;50313;52.894;6.492;2023-05-07T12:32:21;14.65;;;7.82;;
60308;SDS011;50313;52.894;6.492;2023-05-07T12:34:49;13.82;;;7.07;;
60308;SDS011;50313;52.894;6.492;2023-05-07T12:37:23;14.63;;;8.25;;
60308;SDS011;50313;52.894;6.492;2023-05-07T12:40:06;14.65;;;8.07;;
60308;SDS011;50313;52.894;6.492;2023-05-07T12:43:02;14.02;;;7.30;;
60308;SDS011;50313;52.894;6.492;2023-05-07T12:45:36;12.68;;;7.13;;
60308;SDS011;50313;52.894;6.492;2023-05-07T12:48:09;12.05;;;6.72;;
60308;SDS011;50313;52.894;6.492;2023-05-07T12:50:36;12.63;;;7.30;;
60308;SDS011;50313;52.894;6.492;2023-05-07T12:53:10;17.75;;;7.07;;
60308;SDS011;50313;52.894;6.492;2023-05-07T13:02:50;13.48;;;7.22;;
60308;SDS011;50313;52.894;6.492;2023-05-07T13:05:16;14.52;;;8.75;;
60308;SDS011;50313;52.894;6.492;2023-05-07T13:07:52;14.95;;;7.50;;
60308;SDS011;50313;52.894;6.492;2023-05-07T13:10:21;11.77;;;6.22;;
60308;SDS011;50313;52.894;6.492;2023-05-07T13:12:48;13.05;;;7.45;;
60308;SDS011;50313;52.894;6.492;2023-05-07T13:15:14;12.07;;;6.47;;
60308;SDS011;50313;52.894;6.492;2023-05-07T13:17:41;11.43;;;6.57;;
60308;SDS011;50313;52.894;6.492;2023-05-07T13:20:06;14.38;;;6.40;;
60308;SDS011;50313;52.894;6.492;2023-05-07T13:22:34;12.40;;;7.28;;
60308;SDS011;50313;52.894;6.492;2023-05-07T13:24:59;10.50;;;6.72;;
60308;SDS011;50313;52.894;6.492;2023-05-07T13:27:25;13.85;;;7.32;;
60308;SDS011;50313;52.894;6.492;2023-05-07T13:29:51;14.10;;;6.82;;
60308;SDS011;50313;52.894;6.492;2023-05-07T13:32:19;12.07;;;6.68;;
60308;SDS011;50313;52.894;6.492;2023-05-07T13:34:45;11.25;;;7.10;;
60308;SDS011;50313;52.894;6.492;2023-05-07T13:37:11;10.25;;;6.30;;
60308;SDS011;50313;52.894;6.492;2023-05-07T13:39:39;14.68;;;7.57;;
60308;SDS011;50313;52.894;6.492;2023-05-07T13:42:08;13.30;;;7.88;;
60308;SDS011;50313;52.894;6.492;2023-05-07T13:44:34;10.18;;;6.88;;
60308;SDS011;50313;52.894;6.492;2023-05-07T13:47:00;13.07;;;6.95;;
60308;SDS011;50313;52.894;6.492;2023-05-07T13:49:25;11.68;;;7.35;;
60308;SDS011;50313;52.894;6.492;2023-05-07T13:51:51;10.98;;;6.95;;
60308;SDS011;50313;52.894;6.492;2023-05-07T13:54:17;12.02;;;6.93;;
60308;SDS011;50313;52.894;6.492;2023-05-07T13:56:45;10.88;;;7.22;;
60308;SDS011;50313;52.894;6.492;2023-05-07T13:59:11;12.98;;;7.40;;
60308;SDS011;50313;52.894;6.492;2023-05-07T14:01:41;10.50;;;6.22;;
60308;SDS011;50313;52.894;6.492;2023-05-07T14:04:07;10.48;;;6.53;;
60308;SDS011;50313;52.894;6.492;2023-05-07T14:06:36;10.52;;;5.90;;
60308;SDS011;50313;52.894;6.492;2023-05-07T14:09:02;10.63;;;7.10;;
60308;SDS011;50313;52.894;6.492;2023-05-07T14:11:29;14.57;;;6.40;;
60308;SDS011;50313;52.894;6.492;2023-05-07T14:13:55;9.45;;;6.50;;
60308;SDS011;50313;52.894;6.492;2023-05-07T14:16:21;16.83;;;6.80;;
60308;SDS011;50313;52.894;6.492;2023-05-07T14:18:47;12.07;;;7.40;;
60308;SDS011;50313;52.894;6.492;2023-05-07T14:21:16;11.25;;;6.57;;
60308;SDS011;50313;52.894;6.492;2023-05-07T14:23:42;11.25;;;7.22;;
60308;SDS011;50313;52.894;6.492;2023-05-07T14:26:08;12.70;;;7.38;;
60308;SDS011;50313;52.894;6.492;2023-05-07T14:28:33;11.88;;;6.78;;
60308;SDS011;50313;52.894;6.492;2023-05-07T14:31:04;13.85;;;7.50;;
60308;SDS011;50313;52.894;6.492;2023-05-07T14:33:31;9.90;;;6.82;;
60308;SDS011;50313;52.894;6.492;2023-05-07T14:35:57;8.93;;;6.32;;
60308;SDS011;50313;52.894;6.492;2023-05-07T14:38:23;9.65;;;6.63;;
60308;SDS011;50313;52.894;6.492;2023-05-07T14:40:49;13.45;;;6.88;;
60308;SDS011;50313;52.894;6.492;2023-05-07T14:43:14;12.98;;;7.00;;
60308;SDS011;50313;52.894;6.492;2023-05-07T14:45:40;11.90;;;7.63;;
60308;SDS011;50313;52.894;6.492;2023-05-07T14:48:06;9.15;;;6.43;;
60308;SDS011;50313;52.894;6.492;2023-05-07T14:50:31;11.70;;;7.00;;
60308;SDS011;50313;52.894;6.492;2023-05-07T14:52:57;11.90;;;6.53;;
60308;SDS011;50313;52.894;6.492;2023-05-07T14:55:23;9.93;;;6.85;;
60308;SDS011;50313;52.894;6.492;2023-05-07T14:57:49;10.32;;;6.65;;
60308;SDS011;50313;52.894;6.492;2023-05-07T15:00:15;10.40;;;6.72;;
60308;SDS011;50313;52.894;6.492;2023-05-07T15:02:46;10.52;;;7.13;;